createdAt,value
2023-04-27T00:01:35.280Z,97703.29
2023-04-27T00:04:07.326Z,97704.05
2023-04-27T00:06:37.758Z,97707.49
2023-04-27T00:09:08.074Z,97703.24
2023-04-27T00:11:38.640Z,97700.40
2023-04-27T00:14:08.450Z,97698.15
2023-04-27T00:16:38.652Z,97703.70
2023-04-27T00:19:09.581Z,97703.16
2023-04-27T00:21:39.399Z,97700.95
2023-04-27T00:24:08.735Z,97703.80
2023-04-27T00:26:38.624Z,97702.13
2023-04-27T00:29:10.748Z,97702.52
2023-04-27T00:31:42.529Z,97701.29
2023-04-27T00:34:13.287Z,97702.74
2023-04-27T00:36:42.916Z,97700.01
2023-04-27T00:39:13.060Z,97699.41
2023-04-27T00:41:43.404Z,97702.27
2023-04-27T00:44:25.220Z,97698.61
2023-04-27T00:46:56.230Z,97699.91
2023-04-27T00:49:27.384Z,97701.04
2023-04-27T00:51:57.707Z,97696.25
2023-04-27T00:54:27.964Z,97699.96
2023-04-27T00:56:59.924Z,97695.92
2023-04-27T00:59:30.078Z,97703.13
2023-04-27T01:02:03.042Z,97703.35
2023-04-27T01:04:32.758Z,97708.14
2023-04-27T01:07:03.296Z,97712.11
2023-04-27T01:09:33.981Z,97715.56
2023-04-27T01:12:08.014Z,97712.66
2023-04-27T01:14:37.481Z,97717.08
2023-04-27T01:17:09.741Z,97716.10
2023-04-27T01:19:42.839Z,97714.86
2023-04-27T01:22:13.030Z,97714.66
2023-04-27T01:24:42.271Z,97713.48
2023-04-27T01:27:13.185Z,97720.35
2023-04-27T01:29:46.300Z,97723.41
2023-04-27T01:32:16.056Z,97721.77
2023-04-27T01:34:46.039Z,97717.73
2023-04-27T01:37:16.212Z,97724.55
2023-04-27T01:39:46.140Z,97723.47
2023-04-27T01:42:16.078Z,97727.52
2023-04-27T01:44:46.059Z,97731.34
2023-04-27T01:47:19.792Z,97732.19
2023-04-27T01:49:49.647Z,97732.20
2023-04-27T01:52:24.332Z,97730.15
2023-04-27T01:54:54.838Z,97729.34
2023-04-27T01:57:25.850Z,97731.49
2023-04-27T01:59:57.853Z,97727.98
2023-04-27T02:02:27.762Z,97735.30
2023-04-27T02:04:58.106Z,97736.02
2023-04-27T02:07:28.950Z,97738.59
2023-04-27T02:09:59.471Z,97739.66
2023-04-27T02:12:29.496Z,97741.38
2023-04-27T02:14:59.488Z,97740.58
2023-04-27T02:17:31.995Z,97741.38
2023-04-27T02:20:02.421Z,97750.09
2023-04-27T02:22:32.922Z,97750.58
2023-04-27T02:25:02.948Z,97753.52
2023-04-27T02:27:33.695Z,97752.03
2023-04-27T02:30:12.535Z,97756.02
2023-04-27T02:32:44.256Z,97757.73
2023-04-27T02:35:14.479Z,97756.33
2023-04-27T02:37:44.553Z,97759.88
2023-04-27T02:40:18.205Z,97761.55
2023-04-27T02:42:48.175Z,97765.41
2023-04-27T02:45:17.293Z,97769.50
2023-04-27T02:47:48.281Z,97768.52
2023-04-27T02:50:17.959Z,97771.25
2023-04-27T02:52:48.278Z,97772.70
2023-04-27T02:55:22.051Z,97773.29
2023-04-27T02:57:51.890Z,97776.77
2023-04-27T03:00:21.693Z,97774.48
2023-04-27T03:02:54.015Z,97775.01
2023-04-27T03:05:28.999Z,97778.34
2023-04-27T03:08:00.053Z,97779.09
2023-04-27T03:10:29.191Z,97781.30
2023-04-27T03:13:00.171Z,97783.13
2023-04-27T03:15:31.554Z,97785.86
2023-04-27T03:18:00.781Z,97784.94
2023-04-27T03:20:30.195Z,97788.05
2023-04-27T03:22:59.720Z,97791.39
2023-04-27T03:25:30.466Z,97794.48
2023-04-27T03:28:00.268Z,97801.33
2023-04-27T03:30:30.664Z,97802.89
2023-04-27T03:33:00.917Z,97806.92
2023-04-27T03:35:32.359Z,97806.66
2023-04-27T03:38:06.832Z,97806.71
2023-04-27T03:40:36.541Z,97812.47
2023-04-27T03:43:07.349Z,97815.23
2023-04-27T03:45:37.197Z,97818.30
2023-04-27T03:48:07.961Z,97816.73
2023-04-27T03:50:38.652Z,97820.69
2023-04-27T03:53:09.093Z,97825.27
2023-04-27T03:55:42.719Z,97828.52
2023-04-27T03:58:12.292Z,97830.69
2023-04-27T04:00:55.254Z,97826.55
2023-04-27T04:03:25.260Z,97825.93
2023-04-27T04:05:55.487Z,97832.83
2023-04-27T04:08:24.689Z,97835.04
2023-04-27T04:10:55.133Z,97839.89
2023-04-27T04:13:24.294Z,97843.94
2023-04-27T04:16:07.137Z,97847.53
2023-04-27T04:18:37.919Z,97849.26
2023-04-27T04:21:13.746Z,97849.48
2023-04-27T04:23:46.098Z,97845.41
2023-04-27T04:26:17.235Z,97847.08
2023-04-27T04:28:46.914Z,97845.66
2023-04-27T04:31:18.636Z,97848.70
2023-04-27T04:33:47.863Z,97853.65
2023-04-27T04:36:18.907Z,97851.09
2023-04-27T04:38:55.471Z,97858.73
2023-04-27T04:41:26.906Z,97858.56
2023-04-27T04:43:56.448Z,97861.30
2023-04-27T04:46:26.299Z,97865.64
2023-04-27T04:48:56.083Z,97861.34
2023-04-27T04:51:27.845Z,97863.59
2023-04-27T04:53:57.177Z,97864.17
2023-04-27T04:56:28.316Z,97864.95
2023-04-27T04:58:58.256Z,97876.04
2023-04-27T05:01:29.055Z,97870.78
2023-04-27T05:04:01.632Z,97873.03
2023-04-27T05:06:32.668Z,97872.10
2023-04-27T05:09:03.312Z,97873.92
2023-04-27T05:11:33.035Z,97882.46
2023-04-27T05:14:03.018Z,97878.17
2023-04-27T05:16:32.911Z,97879.82
2023-04-27T05:19:02.782Z,97880.48
2023-04-27T05:21:34.293Z,97883.73
2023-04-27T05:24:05.515Z,97884.88
2023-04-27T05:26:35.198Z,97885.92
2023-04-27T05:29:05.150Z,97885.81
2023-04-27T05:31:35.269Z,97888.44
2023-04-27T05:34:05.111Z,97885.62
2023-04-27T05:36:34.104Z,97883.74
2023-04-27T05:39:05.435Z,97884.91
2023-04-27T05:41:35.476Z,97881.58
2023-04-27T05:44:07.528Z,97889.70
2023-04-27T05:46:38.587Z,97887.20
2023-04-27T05:49:08.708Z,97892.08
2023-04-27T05:51:39.321Z,97893.30
2023-04-27T05:54:09.147Z,97891.88
2023-04-27T05:56:39.388Z,97889.66
2023-04-27T05:59:10.196Z,97888.68
2023-04-27T06:01:39.875Z,97891.26
2023-04-27T06:04:09.566Z,97891.12
2023-04-27T06:06:40.949Z,97897.56
2023-04-27T06:09:11.038Z,97900.09
2023-04-27T06:11:40.545Z,97898.27
2023-04-27T06:14:11.105Z,97897.27
2023-04-27T06:16:41.311Z,97898.17
2023-04-27T06:19:12.014Z,97900.69
2023-04-27T06:21:42.617Z,97900.11
2023-04-27T06:24:12.568Z,97903.73
2023-04-27T06:26:41.463Z,97906.85
2023-04-27T06:29:10.649Z,97909.11
2023-04-27T06:31:40.796Z,97906.55
2023-04-27T06:34:10.479Z,97906.95
2023-04-27T06:36:39.717Z,97903.99
2023-04-27T06:39:09.781Z,97901.91
2023-04-27T06:41:40.330Z,97906.77
2023-04-27T06:44:17.424Z,97905.00
2023-04-27T06:46:47.347Z,97903.16
2023-04-27T06:49:16.515Z,97904.15
2023-04-27T06:51:47.137Z,97903.76
2023-04-27T06:54:17.033Z,97907.06
2023-04-27T06:56:46.869Z,97908.06
2023-04-27T06:59:17.118Z,97918.64
2023-04-27T07:01:49.082Z,97918.67
2023-04-27T07:04:24.329Z,97916.04
2023-04-27T07:06:53.997Z,97919.45
2023-04-27T07:09:27.721Z,97918.07
2023-04-27T07:11:59.664Z,97921.63
2023-04-27T07:14:29.820Z,97920.81
2023-04-27T07:17:00.837Z,97924.59
2023-04-27T07:19:31.775Z,97923.76
2023-04-27T07:22:03.214Z,97927.36
2023-04-27T07:24:33.640Z,97924.84
2023-04-27T07:27:05.188Z,97921.80
2023-04-27T07:29:34.799Z,97926.90
2023-04-27T07:32:07.553Z,97916.09
2023-04-27T07:34:52.032Z,97916.60
2023-04-27T07:37:24.029Z,97914.46
2023-04-27T07:39:56.209Z,97918.97
2023-04-27T07:42:26.836Z,97921.70
2023-04-27T07:45:02.900Z,97917.76
2023-04-27T07:47:34.722Z,97919.18
2023-04-27T07:50:09.804Z,97918.13
2023-04-27T07:52:43.266Z,97917.48
2023-04-27T07:55:14.620Z,97920.52
2023-04-27T07:57:43.761Z,97924.97
2023-04-27T08:00:14.348Z,97917.82
2023-04-27T08:02:44.395Z,97920.75
2023-04-27T08:05:17.672Z,97922.71
2023-04-27T08:07:48.105Z,97917.53
2023-04-27T08:10:19.019Z,97920.10
2023-04-27T08:12:50.166Z,97925.97
2023-04-27T08:15:21.933Z,97921.34
2023-04-27T08:17:55.258Z,97930.77
2023-04-27T08:20:25.881Z,97928.62
2023-04-27T08:22:55.253Z,97924.14
2023-04-27T08:25:26.219Z,97926.40
2023-04-27T08:27:58.992Z,97935.23
2023-04-27T08:30:30.710Z,97941.90
2023-04-27T08:33:02.240Z,97942.54
2023-04-27T08:35:34.869Z,97939.30
2023-04-27T08:38:07.963Z,97942.77
2023-04-27T08:40:43.634Z,97935.77
2023-04-27T08:43:16.763Z,97950.63
2023-04-27T08:45:51.522Z,97945.42
2023-04-27T08:48:23.178Z,97946.33
2023-04-27T08:50:58.392Z,97951.07
2023-04-27T08:53:31.139Z,97956.35
2023-04-27T08:56:03.074Z,97958.13
2023-04-27T08:58:39.090Z,97956.85
2023-04-27T09:01:10.162Z,97957.26
2023-04-27T09:03:43.206Z,97960.34
2023-04-27T09:06:17.129Z,97961.04
2023-04-27T09:08:49.379Z,97960.11
2023-04-27T09:11:37.017Z,97961.86
2023-04-27T09:14:18.691Z,97959.46
2023-04-27T09:17:00.446Z,97964.62
2023-04-27T09:19:35.400Z,97963.17
2023-04-27T09:22:07.695Z,97963.92
2023-04-27T09:24:39.560Z,97969.58
2023-04-27T09:27:10.284Z,97970.03
2023-04-27T09:29:40.888Z,97971.05
2023-04-27T09:32:21.711Z,97971.13
2023-04-27T09:34:52.048Z,97963.30
2023-04-27T09:37:23.827Z,97962.89
2023-04-27T09:39:54.492Z,97962.95
2023-04-27T09:42:33.068Z,97967.65
2023-04-27T09:45:07.510Z,97963.23
2023-04-27T09:47:38.160Z,97967.53
2023-04-27T09:50:10.005Z,97964.55
2023-04-27T09:52:40.106Z,97959.53
2023-04-27T09:55:14.335Z,97965.55
2023-04-27T09:58:03.349Z,97958.83
2023-04-27T10:01:21.045Z,97955.20
2023-04-27T10:04:07.429Z,97953.98
2023-04-27T10:07:06.808Z,97946.70
2023-04-27T10:09:44.165Z,97949.29
2023-04-27T10:12:28.072Z,97948.88
2023-04-27T10:15:12.584Z,97950.25
2023-04-27T10:17:53.450Z,97946.20
2023-04-27T10:20:38.115Z,97941.66
2023-04-27T10:23:08.285Z,97945.31
2023-04-27T10:25:42.413Z,97937.73
2023-04-27T10:28:18.896Z,97937.67
2023-04-27T10:30:50.387Z,97944.67
2023-04-27T10:33:30.977Z,97948.12
2023-04-27T10:36:00.787Z,97947.54
2023-04-27T10:38:33.486Z,97951.09
2023-04-27T10:41:07.554Z,97946.28
2023-04-27T10:43:36.775Z,97946.52
2023-04-27T10:46:17.048Z,97944.31
2023-04-27T10:48:48.525Z,97945.55
2023-04-27T10:51:18.527Z,97948.58
2023-04-27T10:53:55.799Z,97945.19
2023-04-27T10:56:27.167Z,97947.52
2023-04-27T10:59:02.602Z,97945.33
2023-04-27T11:01:32.552Z,97943.36
2023-04-27T11:04:04.304Z,97946.45
2023-04-27T11:06:44.406Z,97946.42
2023-04-27T11:09:15.244Z,97949.45
2023-04-27T11:11:46.610Z,97951.86
2023-04-27T11:14:21.828Z,97948.94
2023-04-27T11:16:52.689Z,97949.48
2023-04-27T11:19:22.993Z,97953.89
2023-04-27T11:22:07.248Z,97955.25
2023-04-27T11:24:51.476Z,97961.04
2023-04-27T11:27:25.673Z,97956.83
2023-04-27T11:29:56.116Z,97962.13
2023-04-27T11:32:26.531Z,97959.02
2023-04-27T11:34:59.677Z,97964.28
2023-04-27T11:37:35.005Z,97963.48
2023-04-27T11:40:09.327Z,97966.21
2023-04-27T11:42:43.920Z,97970.10
2023-04-27T11:45:14.233Z,97971.48
2023-04-27T11:47:48.249Z,97970.84
2023-04-27T11:50:25.010Z,97969.54
2023-04-27T11:52:59.024Z,97971.30
2023-04-27T11:55:29.185Z,97973.18
2023-04-27T11:58:00.429Z,97970.79
2023-04-27T12:00:29.908Z,97968.47
2023-04-27T12:03:00.618Z,97968.97
2023-04-27T12:05:32.308Z,97961.99
2023-04-27T12:08:02.664Z,97960.09
2023-04-27T12:10:32.652Z,97961.29
2023-04-27T12:13:02.604Z,97957.75
2023-04-27T12:15:32.227Z,97959.69
2023-04-27T12:18:03.406Z,97962.27
2023-04-27T12:20:35.264Z,97972.61
2023-04-27T12:23:05.232Z,97978.04
2023-04-27T12:25:36.859Z,97981.86
2023-04-27T12:28:08.822Z,97982.10
2023-04-27T12:30:38.716Z,97981.39
2023-04-27T12:33:11.399Z,97980.25
2023-04-27T12:35:40.788Z,97979.28
2023-04-27T12:38:10.529Z,97980.55
2023-04-27T12:40:40.544Z,97976.95
2023-04-27T12:43:10.699Z,97973.26
2023-04-27T12:45:40.309Z,97971.20
2023-04-27T12:48:10.575Z,97975.40
2023-04-27T12:50:39.997Z,97975.52
2023-04-27T12:53:08.811Z,97981.73
2023-04-27T12:55:38.345Z,97972.81
2023-04-27T12:58:08.145Z,97973.08
2023-04-27T13:00:38.975Z,97974.52
2023-04-27T13:03:08.119Z,97974.69
2023-04-27T13:05:38.088Z,97974.10
2023-04-27T13:08:11.507Z,97982.04
2023-04-27T13:10:42.512Z,97985.17
2023-04-27T13:13:11.981Z,97990.48
2023-04-27T13:15:41.791Z,97988.86
2023-04-27T13:18:11.291Z,97993.77
2023-04-27T13:20:41.257Z,97988.84
2023-04-27T13:23:12.064Z,97987.48
2023-04-27T13:25:42.294Z,97990.75
2023-04-27T13:28:12.956Z,97989.16
2023-04-27T13:30:42.486Z,97988.64
2023-04-27T13:33:23.257Z,97993.88
2023-04-27T13:35:54.604Z,97995.88
2023-04-27T13:38:24.578Z,97990.71
2023-04-27T13:40:55.137Z,97991.42
2023-04-27T13:43:31.487Z,97993.41
2023-04-27T13:46:02.779Z,97998.48
2023-04-27T13:48:33.062Z,98001.31
2023-04-27T13:51:04.220Z,98000.85
2023-04-27T13:53:34.045Z,98001.67
2023-04-27T13:56:04.054Z,98002.91
2023-04-27T13:58:34.863Z,98002.42
2023-04-27T14:01:04.252Z,98007.95
2023-04-27T14:03:34.375Z,98008.02
2023-04-27T14:06:09.624Z,98010.77
2023-04-27T14:08:40.973Z,98017.34
2023-04-27T14:11:15.358Z,98019.88
2023-04-27T14:13:44.852Z,98019.90
2023-04-27T14:16:15.221Z,98024.31
2023-04-27T14:18:45.182Z,98022.77
2023-04-27T14:21:17.742Z,98022.29
2023-04-27T14:23:48.178Z,98023.90
2023-04-27T14:26:18.485Z,98023.41
2023-04-27T14:28:47.633Z,98024.55
2023-04-27T14:31:18.838Z,98026.73
2023-04-27T14:33:48.650Z,98027.31
2023-04-27T14:36:21.920Z,98030.66
2023-04-27T14:38:51.354Z,98034.76
2023-04-27T14:41:24.948Z,98034.80
2023-04-27T14:43:56.608Z,98042.15
2023-04-27T14:46:26.848Z,98041.90
2023-04-27T14:48:57.104Z,98044.31
2023-04-27T14:51:29.210Z,98041.91
2023-04-27T14:53:59.671Z,98045.66
2023-04-27T14:56:31.003Z,98052.86
2023-04-27T14:59:01.965Z,98051.80
2023-04-27T15:01:34.239Z,98054.33
2023-04-27T15:04:13.350Z,98052.52
2023-04-27T15:06:47.428Z,98057.91
2023-04-27T15:09:20.632Z,98052.05
2023-04-27T15:11:50.572Z,98057.66
2023-04-27T15:14:21.555Z,98063.34
2023-04-27T15:16:52.426Z,98061.73
2023-04-27T15:19:21.937Z,98061.85
2023-04-27T15:21:51.873Z,98058.88
2023-04-27T15:24:21.823Z,98061.30
2023-04-27T15:26:51.964Z,98064.33
2023-04-27T15:29:22.692Z,98064.01
2023-04-27T15:31:52.832Z,98064.09
2023-04-27T15:34:22.931Z,98060.80
2023-04-27T15:36:55.501Z,98060.67
2023-04-27T15:39:25.147Z,98061.55
2023-04-27T15:41:56.344Z,98062.61
2023-04-27T15:44:26.030Z,98061.14
2023-04-27T15:46:55.969Z,98061.11
2023-04-27T15:49:25.625Z,98061.27
2023-04-27T15:51:55.880Z,98064.79
2023-04-27T15:54:26.571Z,98065.40
2023-04-27T15:56:56.295Z,98065.11
2023-04-27T15:59:25.663Z,98067.02
2023-04-27T16:01:55.727Z,98070.38
2023-04-27T16:04:25.335Z,98074.26
2023-04-27T16:06:54.745Z,98079.46
2023-04-27T16:09:26.290Z,98077.95
2023-04-27T16:11:55.845Z,98078.45
2023-04-27T16:14:26.197Z,98084.29
2023-04-27T16:17:01.091Z,98088.83
2023-04-27T16:19:31.476Z,98086.23
2023-04-27T16:22:04.545Z,98093.82
2023-04-27T16:24:35.268Z,98099.61
2023-04-27T16:27:07.688Z,98101.69
2023-04-27T16:29:37.638Z,98105.16
2023-04-27T16:32:07.811Z,98112.01
2023-04-27T16:34:38.610Z,98109.17
2023-04-27T16:37:07.606Z,98111.61
2023-04-27T16:39:37.881Z,98110.66
2023-04-27T16:42:07.794Z,98115.48
2023-04-27T16:44:39.238Z,98117.13
2023-04-27T16:47:10.296Z,98118.08
2023-04-27T16:49:46.359Z,98123.17
2023-04-27T16:52:17.894Z,98122.19
2023-04-27T16:54:51.590Z,98128.34
2023-04-27T16:57:22.441Z,98124.87
2023-04-27T16:59:52.757Z,98134.15
2023-04-27T17:02:25.562Z,98138.98
2023-04-27T17:04:56.473Z,98139.87
2023-04-27T17:07:28.932Z,98137.42
2023-04-27T17:10:01.816Z,98137.09
2023-04-27T17:12:33.812Z,98139.76
2023-04-27T17:15:03.405Z,98136.06
2023-04-27T17:17:34.520Z,98138.88
2023-04-27T17:20:05.350Z,98142.05
2023-04-27T17:22:35.991Z,98141.50
2023-04-27T17:25:08.232Z,98139.23
2023-04-27T17:27:40.551Z,98144.02
2023-04-27T17:30:10.467Z,98145.17
2023-04-27T17:32:42.487Z,98150.42
2023-04-27T17:35:11.979Z,98152.32
2023-04-27T17:37:41.637Z,98156.92
2023-04-27T17:40:16.902Z,98163.71
2023-04-27T17:42:47.736Z,98168.36
2023-04-27T17:45:17.456Z,98169.88
2023-04-27T17:47:47.670Z,98172.81
2023-04-27T17:50:18.054Z,98177.87
2023-04-27T17:52:51.593Z,98180.09
2023-04-27T17:55:24.177Z,98181.73
2023-04-27T17:57:54.030Z,98184.33
2023-04-27T18:00:24.340Z,98186.23
2023-04-27T18:02:53.982Z,98187.59
2023-04-27T18:05:27.913Z,98195.13
2023-04-27T18:07:57.982Z,98194.25
2023-04-27T18:10:29.981Z,98197.84
2023-04-27T18:13:02.063Z,98204.48
2023-04-27T18:15:31.700Z,98210.84
2023-04-27T18:18:03.804Z,98211.01
2023-04-27T18:20:33.053Z,98213.30
2023-04-27T18:23:02.507Z,98222.70
2023-04-27T18:25:32.793Z,98222.50
2023-04-27T18:28:05.680Z,98222.55
2023-04-27T18:30:36.689Z,98227.02
2023-04-27T18:33:06.526Z,98227.73
2023-04-27T18:35:35.912Z,98229.63
2023-04-27T18:38:06.451Z,98232.61
2023-04-27T18:40:36.853Z,98233.77
2023-04-27T18:43:08.041Z,98236.83
2023-04-27T18:45:37.463Z,98240.98
2023-04-27T18:48:07.558Z,98240.16
2023-04-27T18:50:38.717Z,98240.81
2023-04-27T18:53:09.006Z,98238.83
2023-04-27T18:55:40.123Z,98246.75
2023-04-27T18:58:09.029Z,98248.67
2023-04-27T19:00:39.161Z,98252.52
2023-04-27T19:03:08.855Z,98255.83
2023-04-27T19:05:43.449Z,98259.95
2023-04-27T19:08:13.036Z,98261.70
2023-04-27T19:10:45.525Z,98262.86
2023-04-27T19:13:15.972Z,98263.64
2023-04-27T19:15:45.334Z,98262.98
2023-04-27T19:18:15.436Z,98266.35
2023-04-27T19:20:45.550Z,98265.48
2023-04-27T19:23:17.519Z,98267.07
2023-04-27T19:25:49.661Z,98268.76
2023-04-27T19:28:20.260Z,98270.44
2023-04-27T19:30:52.029Z,98275.06
2023-04-27T19:33:22.381Z,98270.36
2023-04-27T19:35:52.930Z,98270.85
2023-04-27T19:38:24.208Z,98270.51
2023-04-27T19:40:54.593Z,98267.37
2023-04-27T19:43:24.961Z,98272.02
2023-04-27T19:45:54.843Z,98269.34
2023-04-27T19:48:25.268Z,98269.83
2023-04-27T19:50:55.404Z,98269.98
2023-04-27T19:53:32.415Z,98274.25
2023-04-27T19:56:03.236Z,98275.42
2023-04-27T19:58:36.146Z,98274.95
2023-04-27T20:01:07.837Z,98275.72
2023-04-27T20:03:39.289Z,98273.69
2023-04-27T20:06:11.142Z,98276.80
2023-04-27T20:08:41.817Z,98279.48
2023-04-27T20:11:11.406Z,98278.60
2023-04-27T20:13:42.473Z,98281.84
2023-04-27T20:16:12.459Z,98283.88
2023-04-27T20:18:45.536Z,98287.85
2023-04-27T20:21:16.711Z,98285.06
2023-04-27T20:23:49.859Z,98282.40
2023-04-27T20:26:20.625Z,98281.05
2023-04-27T20:28:51.685Z,98285.11
2023-04-27T20:31:22.550Z,98287.30
2023-04-27T20:33:51.971Z,98282.27
2023-04-27T20:36:23.779Z,98279.85
2023-04-27T20:38:53.679Z,98280.52
2023-04-27T20:41:24.267Z,98280.95
2023-04-27T20:43:54.824Z,98278.53
2023-04-27T20:46:24.935Z,98277.23
2023-04-27T20:48:55.671Z,98276.44
2023-04-27T20:51:26.819Z,98281.92
2023-04-27T20:53:57.600Z,98277.50
2023-04-27T20:56:31.164Z,98275.35
2023-04-27T20:59:01.077Z,98277.80
2023-04-27T21:01:30.210Z,98277.98
2023-04-27T21:04:01.805Z,98278.59
2023-04-27T21:06:32.964Z,98278.83
2023-04-27T21:09:02.489Z,98279.33
2023-04-27T21:11:32.081Z,98279.08
2023-04-27T21:14:01.593Z,98280.56
2023-04-27T21:16:32.002Z,98278.52
2023-04-27T21:19:01.785Z,98276.64
2023-04-27T21:21:31.768Z,98276.40
2023-04-27T21:24:08.223Z,98277.60
2023-04-27T21:26:38.342Z,98277.63
2023-04-27T21:29:08.812Z,98277.34
2023-04-27T21:31:38.561Z,98280.02
2023-04-27T21:34:09.239Z,98284.36
2023-04-27T21:36:38.983Z,98285.98
2023-04-27T21:39:09.304Z,98282.98
2023-04-27T21:41:39.882Z,98285.48
2023-04-27T21:44:10.880Z,98282.02
2023-04-27T21:46:41.406Z,98281.15
2023-04-27T21:49:11.229Z,98281.81
2023-04-27T21:51:41.949Z,98280.48
2023-04-27T21:54:12.102Z,98282.04
2023-04-27T21:56:43.101Z,98284.83
2023-04-27T21:59:12.963Z,98283.59
2023-04-27T22:01:43.478Z,98281.05
2023-04-27T22:04:17.264Z,98283.77
2023-04-27T22:06:46.919Z,98287.55
2023-04-27T22:09:20.633Z,98286.84
2023-04-27T22:11:50.140Z,98283.18
2023-04-27T22:14:20.275Z,98285.89
2023-04-27T22:16:50.706Z,98282.86
2023-04-27T22:19:22.019Z,98287.85
2023-04-27T22:21:52.655Z,98287.10
2023-04-27T22:24:23.751Z,98289.16
2023-04-27T22:26:53.765Z,98291.87
2023-04-27T22:29:23.232Z,98287.44
2023-04-27T22:31:52.792Z,98286.95
2023-04-27T22:34:22.534Z,98284.85
2023-04-27T22:36:53.221Z,98285.43
2023-04-27T22:39:23.332Z,98281.88
2023-04-27T22:41:54.106Z,98282.73
2023-04-27T22:44:24.474Z,98282.10
2023-04-27T22:46:55.875Z,98280.59
2023-04-27T22:49:25.548Z,98281.14
2023-04-27T22:51:58.072Z,98280.05
2023-04-27T22:54:29.852Z,98283.46
2023-04-27T22:57:01.140Z,98284.87
2023-04-27T22:59:31.747Z,98284.49
2023-04-27T23:02:01.346Z,98286.89
2023-04-27T23:04:34.153Z,98286.89
2023-04-27T23:07:10.391Z,98287.48
2023-04-27T23:09:43.235Z,98287.16
2023-04-27T23:12:16.195Z,98287.44
2023-04-27T23:14:45.529Z,98290.75
2023-04-27T23:17:15.894Z,98288.31
2023-04-27T23:19:44.970Z,98290.46
2023-04-27T23:22:16.979Z,98288.08
2023-04-27T23:24:47.372Z,98289.05
2023-04-27T23:27:17.187Z,98286.04
2023-04-27T23:29:47.047Z,98285.99
2023-04-27T23:32:17.699Z,98287.94
2023-04-27T23:34:48.033Z,98286.98
2023-04-27T23:37:18.749Z,98285.08
2023-04-27T23:39:49.183Z,98285.46
2023-04-27T23:42:22.950Z,98282.77
2023-04-27T23:44:53.482Z,98281.81
2023-04-27T23:47:23.507Z,98284.07
2023-04-27T23:49:52.405Z,98287.92
2023-04-27T23:52:22.575Z,98287.48
2023-04-27T23:54:52.895Z,98288.94
2023-04-27T23:57:21.806Z,98290.94
2023-04-27T23:59:51.081Z,98298.71
